createdAt,value
2018-08-18T00:00:16.932Z,14.8
2018-08-18T00:01:07.215Z,14.8
2018-08-18T00:01:57.035Z,14.8
2018-08-18T00:02:47.118Z,14.8
2018-08-18T00:03:36.925Z,14.8
2018-08-18T00:04:26.954Z,14.8
2018-08-18T00:05:17.293Z,14.8
2018-08-18T00:06:07.389Z,14.8
2018-08-18T00:06:57.437Z,14.7
2018-08-18T00:07:47.214Z,14.8
2018-08-18T00:08:37.287Z,14.8
2018-08-18T00:09:27.360Z,14.8
2018-08-18T00:10:17.761Z,14.8
2018-08-18T00:11:07.185Z,14.7
2018-08-18T00:11:57.567Z,14.7
2018-08-18T00:12:47.883Z,14.7
2018-08-18T00:13:37.947Z,14.7
2018-08-18T00:14:28.014Z,14.7
2018-08-18T00:15:17.796Z,14.7
2018-08-18T00:16:08.139Z,14.7
2018-08-18T00:16:58.213Z,14.7
2018-08-18T00:17:47.980Z,14.7
2018-08-18T00:18:37.764Z,14.7
2018-08-18T00:37:31.349Z,14.5
2018-08-18T00:38:21.064Z,14.5
2018-08-18T00:39:11.431Z,14.5
2018-08-18T00:40:00.909Z,14.5
2018-08-18T00:40:51.534Z,14.4
2018-08-18T00:41:41.604Z,14.4
2018-08-18T00:42:30.819Z,14.4
2018-08-18T00:43:21.740Z,14.4
2018-08-18T00:44:11.848Z,14.4
2018-08-18T00:45:01.846Z,14.4
2018-08-18T00:45:51.918Z,14.4
2018-08-18T00:46:41.723Z,14.4
2018-08-18T00:47:32.050Z,14.4
2018-08-18T00:48:22.145Z,14.3
2018-08-18T00:49:12.192Z,14.3
2018-08-18T00:50:01.967Z,14.3
2018-08-18T00:50:52.384Z,14.3
2018-08-18T00:51:42.392Z,14.3
2018-08-18T00:52:32.439Z,14.3
2018-08-18T00:53:21.945Z,14.3
2018-08-18T00:54:12.618Z,14.3
2018-08-18T00:55:02.677Z,14.3
2018-08-18T00:55:52.712Z,14.3
2018-08-18T00:56:42.793Z,14.3
2018-08-18T00:57:32.588Z,14.3
2018-08-18T00:58:22.607Z,14.3
2018-08-18T00:59:12.960Z,14.3
2018-08-18T01:00:03.028Z,14.3
2018-08-18T01:00:52.797Z,14.3
2018-08-18T01:01:43.142Z,14.3
2018-08-18T01:02:32.934Z,14.3
2018-08-18T01:03:23.273Z,14.3
2018-08-18T01:04:12.772Z,14.4
2018-08-18T01:05:03.149Z,14.3
2018-08-18T01:05:53.467Z,14.3
2018-08-18T01:06:43.246Z,14.3
2018-08-18T01:07:33.324Z,14.3
2018-08-18T01:08:23.442Z,14.3
2018-08-18T01:09:13.706Z,14.3
2018-08-18T01:10:03.498Z,14.3
2018-08-18T01:10:54.403Z,14.3
2018-08-18T01:11:45.055Z,14.3
2018-08-18T01:12:34.860Z,14.3
2018-08-18T01:13:23.537Z,14.3
2018-08-18T01:14:14.891Z,14.3
2018-08-18T01:15:04.395Z,14.3
2018-08-18T01:15:54.105Z,14.3
2018-08-18T01:16:44.029Z,14.3
2018-08-18T01:17:34.066Z,14.3
2018-08-18T01:18:24.428Z,14.3
2018-08-18T01:19:14.481Z,14.3
2018-08-18T01:20:04.284Z,14.3
2018-08-18T01:20:54.628Z,14.3
2018-08-18T01:21:44.692Z,14.2
2018-08-18T01:22:34.472Z,14.3
2018-08-18T01:23:24.828Z,14.2
2018-08-18T01:24:14.897Z,14.2
2018-08-18T01:25:04.951Z,14.2
2018-08-18T01:25:54.728Z,14.2
2018-08-18T01:26:44.788Z,14.2
2018-08-18T01:27:35.158Z,14.2
2018-08-18T01:28:25.238Z,14.2
2018-08-18T01:29:14.992Z,14.1
2018-08-18T01:30:05.346Z,14.1
2018-08-18T01:30:55.416Z,14.1
2018-08-18T01:31:45.181Z,14.1
2018-08-18T01:32:35.545Z,14.1
2018-08-18T01:33:25.589Z,14.1
2018-08-18T01:34:15.670Z,14.1
2018-08-18T01:35:05.728Z,14.1
2018-08-18T01:35:55.796Z,14.1
2018-08-18T01:36:45.848Z,14.1
2018-08-18T01:37:35.352Z,14.1
2018-08-18T01:38:25.415Z,14.1
2018-08-18T01:39:15.760Z,14.1
2018-08-18T01:40:05.513Z,14
2018-08-18T01:40:56.161Z,14
2018-08-18T01:41:45.651Z,14
2018-08-18T01:42:36.273Z,14
2018-08-18T01:43:25.774Z,14
2018-08-18T01:44:16.413Z,14
2018-08-18T01:45:06.495Z,13.9
2018-08-18T01:45:56.252Z,13.9
2018-08-18T01:46:46.053Z,13.9
2018-08-18T01:47:36.656Z,13.9
2018-08-18T01:48:26.738Z,13.9
2018-08-18T01:49:16.518Z,13.9
2018-08-18T01:50:06.848Z,13.9
2018-08-18T01:50:56.661Z,13.9
2018-08-18T01:51:46.742Z,13.9
2018-08-18T01:52:37.041Z,13.9
2018-08-18T01:53:26.851Z,13.8
2018-08-18T01:54:17.199Z,13.8
2018-08-18T01:55:06.968Z,13.8
2018-08-18T01:55:57.334Z,13.8
2018-08-18T01:56:47.094Z,13.8
2018-08-18T01:57:37.459Z,13.8
2018-08-18T01:58:27.543Z,13.8
2018-08-18T01:59:17.593Z,13.8
2018-08-18T02:00:07.081Z,13.8
2018-08-18T02:00:57.424Z,13.8
2018-08-18T02:01:47.789Z,13.8
2018-08-18T02:02:37.844Z,13.8
2018-08-18T02:03:27.893Z,13.8
2018-08-18T02:04:17.702Z,13.7
2018-08-18T02:05:08.034Z,13.7
2018-08-18T02:05:58.105Z,13.7
2018-08-18T02:06:47.580Z,13.7
2018-08-18T02:07:38.228Z,13.7
2018-08-18T02:08:28.278Z,13.7
2018-08-18T02:09:18.349Z,13.7
2018-08-18T02:10:08.150Z,13.7
2018-08-18T02:10:58.487Z,13.6
2018-08-18T02:11:48.543Z,13.6
2018-08-18T02:12:38.344Z,13.6
2018-08-18T02:13:28.670Z,13.6
2018-08-18T02:14:18.465Z,13.6
2018-08-18T02:15:08.530Z,13.6
2018-08-18T02:15:58.850Z,13.6
2018-08-18T02:16:48.901Z,13.6
2018-08-18T02:17:38.997Z,13.6
2018-08-18T02:18:29.032Z,13.6
2018-08-18T02:19:18.828Z,13.6
2018-08-18T02:20:09.951Z,13.6
2018-08-18T02:20:59.231Z,13.6
2018-08-18T02:21:49.304Z,13.6
2018-08-18T02:22:39.385Z,13.5
2018-08-18T02:23:29.150Z,13.5
2018-08-18T02:24:19.530Z,13.5
2018-08-18T02:25:09.279Z,13.5
2018-08-18T02:25:59.334Z,13.5
2018-08-18T02:26:49.125Z,13.5
2018-08-18T02:27:39.474Z,13.5
2018-08-18T02:28:29.820Z,13.5
2018-08-18T02:29:19.307Z,13.5
2018-08-18T02:30:09.970Z,13.5
2018-08-18T02:30:59.722Z,13.5
2018-08-18T02:31:50.072Z,13.6
2018-08-18T02:32:39.864Z,13.6
2018-08-18T02:33:30.210Z,13.6
2018-08-18T02:34:20.271Z,13.6
2018-08-18T02:35:10.092Z,13.6
2018-08-18T02:36:00.125Z,13.6
2018-08-18T02:36:50.481Z,13.6
2018-08-18T02:37:40.551Z,13.6
2018-08-18T02:38:30.357Z,13.6
2018-08-18T02:39:20.680Z,13.6
2018-08-18T02:40:10.796Z,13.6
2018-08-18T02:41:00.223Z,13.6
2018-08-18T02:41:50.853Z,13.6
2018-08-18T02:42:40.933Z,13.6
2018-08-18T02:43:30.706Z,13.6
2018-08-18T02:44:20.758Z,13.6
2018-08-18T02:45:10.824Z,13.6
2018-08-18T02:46:01.173Z,13.6
2018-08-18T02:46:51.273Z,13.6
2018-08-18T02:47:41.294Z,13.6
2018-08-18T02:48:31.365Z,13.6
2018-08-18T02:49:21.422Z,13.6
2018-08-18T02:50:11.505Z,13.5
2018-08-18T02:51:01.554Z,13.5
2018-08-18T02:51:51.624Z,13.6
2018-08-18T02:52:41.389Z,13.5
2018-08-18T02:53:31.761Z,13.5
2018-08-18T02:54:21.805Z,13.5
2018-08-18T02:55:11.861Z,13.5
2018-08-18T02:56:01.939Z,13.5
2018-08-18T02:56:51.996Z,13.5
2018-08-18T02:57:42.180Z,13.5
2018-08-18T02:58:32.122Z,13.5
2018-08-18T02:59:22.204Z,13.5
2018-08-18T03:00:12.264Z,13.5
2018-08-18T03:01:02.296Z,13.5
2018-08-18T03:01:52.366Z,13.4
2018-08-18T03:02:42.446Z,13.4
2018-08-18T03:03:32.499Z,13.5
2018-08-18T03:04:22.562Z,13.4
2018-08-18T03:05:12.622Z,13.4
2018-08-18T03:06:02.695Z,13.4
2018-08-18T03:06:52.492Z,13.4
2018-08-18T03:07:42.965Z,13.4
2018-08-18T03:08:32.347Z,13.4
2018-08-18T03:09:22.987Z,13.4
2018-08-18T03:10:13.042Z,13.4
2018-08-18T03:11:02.841Z,13.4
2018-08-18T03:11:53.156Z,13.4
2018-08-18T03:12:42.946Z,13.4
2018-08-18T03:13:33.335Z,13.4
2018-08-18T03:14:23.072Z,13.4
2018-08-18T03:15:13.410Z,13.4
2018-08-18T03:16:03.209Z,13.4
2018-08-18T03:16:53.249Z,13.3
2018-08-18T03:17:43.327Z,13.3
2018-08-18T03:18:33.678Z,13.3
2018-08-18T03:19:23.449Z,13.3
2018-08-18T03:20:13.821Z,13.3
2018-08-18T03:21:03.301Z,13.3
2018-08-18T03:21:53.945Z,13.3
2018-08-18T03:22:43.715Z,13.3
2018-08-18T03:23:33.768Z,13.3
2018-08-18T03:24:23.860Z,13.3
2018-08-18T03:25:14.018Z,13.3
2018-08-18T03:26:04.242Z,13.2
2018-08-18T03:26:54.311Z,13.2
2018-08-18T03:27:44.418Z,13.2
2018-08-18T03:28:34.164Z,13.2
2018-08-18T03:29:24.212Z,13.2
2018-08-18T03:30:14.663Z,13.2
2018-08-18T03:31:04.368Z,13.2
2018-08-18T03:31:54.437Z,13.2
2018-08-18T03:32:44.468Z,13.1
2018-08-18T03:33:34.824Z,13.2
2018-08-18T03:34:24.586Z,13.1
2018-08-18T03:35:14.935Z,13.1
2018-08-18T03:36:04.733Z,13.1
2018-08-18T03:36:55.079Z,13.1
2018-08-18T03:37:45.112Z,13.1
2018-08-18T03:38:34.937Z,13.1
2018-08-18T03:39:25.255Z,13.1
2018-08-18T03:40:15.029Z,13.1
2018-08-18T03:41:05.129Z,13.1
2018-08-18T03:41:55.180Z,13.1
2018-08-18T03:42:45.506Z,13.1
2018-08-18T03:43:35.577Z,13.1
2018-08-18T03:44:25.651Z,13.1
2018-08-18T03:45:15.424Z,13.1
2018-08-18T03:46:05.507Z,13.1
2018-08-18T03:46:55.849Z,13.1
2018-08-18T03:47:45.916Z,13.1
2018-08-18T03:48:35.987Z,13.1
2018-08-18T03:49:26.064Z,13.1
2018-08-18T03:50:16.116Z,13.1
2018-08-18T03:51:06.166Z,13.1
2018-08-18T03:51:55.959Z,13.1
2018-08-18T03:52:46.316Z,13.1
2018-08-18T03:53:36.351Z,13.1
2018-08-18T03:54:26.447Z,13.1
2018-08-18T03:55:16.540Z,13.1
2018-08-18T03:56:06.553Z,13.1
2018-08-18T03:56:56.327Z,13.1
2018-08-18T03:57:46.675Z,13.1
2018-08-18T03:58:36.755Z,13.1
2018-08-18T03:59:26.539Z,13.1
2018-08-18T04:00:16.600Z,13.1
2018-08-18T04:01:06.379Z,13.1
2018-08-18T04:01:57.647Z,13.1
2018-08-18T04:02:47.087Z,13.1
2018-08-18T04:03:37.136Z,13.1
2018-08-18T04:04:27.198Z,13.2
2018-08-18T04:05:16.662Z,13.1
2018-08-18T04:06:07.036Z,13.2
2018-08-18T04:06:57.400Z,13.2
2018-08-18T04:07:47.167Z,13.2
2018-08-18T04:08:37.516Z,13.2
2018-08-18T04:09:27.653Z,13.2
2018-08-18T04:10:17.622Z,13.2
2018-08-18T04:11:07.466Z,13.3
2018-08-18T04:11:57.506Z,13.3
2018-08-18T04:12:47.859Z,13.3
2018-08-18T04:13:37.887Z,13.3
2018-08-18T04:14:27.947Z,13.3
2018-08-18T04:15:17.740Z,13.3
2018-08-18T04:16:07.524Z,13.3
2018-08-18T04:16:57.575Z,13.3
2018-08-18T04:17:48.017Z,13.3
2018-08-18T04:18:37.991Z,13.3
2018-08-18T04:19:28.329Z,13.3
2018-08-18T04:20:18.424Z,13.3
2018-08-18T04:21:08.493Z,13.3
2018-08-18T04:21:58.262Z,13.3
2018-08-18T04:22:48.318Z,13.3
2018-08-18T04:23:38.092Z,13.3
2018-08-18T04:24:28.733Z,13.4
2018-08-18T04:25:19.266Z,13.4
2018-08-18T04:26:08.580Z,13.4
2018-08-18T04:26:58.640Z,13.4
2018-08-18T04:27:48.772Z,13.4
2018-08-18T04:28:39.056Z,13.5
2018-08-18T04:29:29.114Z,13.5
2018-08-18T04:30:18.982Z,13.6
2018-08-18T04:31:09.248Z,13.6
2018-08-18T04:31:59.314Z,13.6
2018-08-18T04:32:49.436Z,13.6
2018-08-18T04:33:39.468Z,13.7
2018-08-18T04:34:29.499Z,13.8
2018-08-18T04:35:19.501Z,13.8
2018-08-18T04:36:09.637Z,13.8
2018-08-18T04:36:59.703Z,13.8
2018-08-18T04:37:49.477Z,13.8
2018-08-18T04:38:39.528Z,13.8
2018-08-18T04:39:29.868Z,13.9
2018-08-18T04:40:19.657Z,13.9
2018-08-18T04:41:09.723Z,13.9
2018-08-18T04:41:59.783Z,13.9
2018-08-18T04:42:50.126Z,14
2018-08-18T04:43:40.276Z,14
2018-08-18T04:44:30.266Z,14
2018-08-18T04:45:20.047Z,14.1
2018-08-18T04:46:10.381Z,14.1
2018-08-18T04:47:00.490Z,14.2
2018-08-18T04:47:50.537Z,14.3
2018-08-18T04:48:40.304Z,14.3
2018-08-18T05:06:48.932Z,17.4
2018-08-18T05:07:38.931Z,17.7
2018-08-18T05:08:29.282Z,17.9
2018-08-18T05:09:19.349Z,18.1
2018-08-18T05:10:09.410Z,18.3
2018-08-18T05:10:59.193Z,18.4
2018-08-18T05:11:49.788Z,18.6
2018-08-18T05:12:39.574Z,18.8
2018-08-18T05:13:29.662Z,19.1
2018-08-18T05:14:19.475Z,19.3
2018-08-18T05:15:09.780Z,19.4
2018-08-18T05:15:59.306Z,19.7
2018-08-18T05:16:49.741Z,19.9
2018-08-18T05:17:39.703Z,20.1
2018-08-18T05:18:29.196Z,20.4
2018-08-18T05:19:20.755Z,20.6
2018-08-18T05:20:10.202Z,20.8
2018-08-18T05:20:59.949Z,21.1
2018-08-18T05:21:50.310Z,21.3
2018-08-18T05:22:40.384Z,21.6
2018-08-18T05:23:30.155Z,21.8
2018-08-18T05:24:20.221Z,22.1
2018-08-18T05:25:10.007Z,22.4
2018-08-18T05:26:00.634Z,22.6
2018-08-18T05:26:50.411Z,22.9
2018-08-18T05:27:40.754Z,23.2
2018-08-18T05:28:30.531Z,23.5
2018-08-18T05:29:20.657Z,23.8
2018-08-18T05:30:10.958Z,24.1
2018-08-18T05:31:00.734Z,24.4
2018-08-18T05:31:51.082Z,24.7
2018-08-18T05:32:40.867Z,25
2018-08-18T05:33:31.177Z,25.3
2018-08-18T05:34:21.246Z,25.6
2018-08-18T05:35:11.311Z,25.9
2018-08-18T05:36:01.397Z,26.3
2018-08-18T05:36:51.147Z,26.6
2018-08-18T05:37:41.499Z,26.9
2018-08-18T05:38:31.576Z,27.2
2018-08-18T05:39:21.635Z,27.6
2018-08-18T05:40:11.406Z,27.9
2018-08-18T05:41:01.765Z,28.2
2018-08-18T05:41:51.809Z,28.5
2018-08-18T05:42:41.886Z,28.9
2018-08-18T05:43:31.968Z,29.3
2018-08-18T05:44:21.748Z,29.6
2018-08-18T05:45:12.081Z,29.9
2018-08-18T05:46:01.857Z,30.3
2018-08-18T05:46:52.192Z,30.6
2018-08-18T05:47:42.917Z,30.9
2018-08-18T05:48:32.051Z,31.3
2018-08-18T05:49:22.444Z,31.6
2018-08-18T05:50:12.453Z,31.9
2018-08-18T05:51:02.246Z,32.3
2018-08-18T05:51:52.603Z,32.6
2018-08-18T05:52:42.666Z,32.9
2018-08-18T05:53:32.538Z,33.3
2018-08-18T05:54:22.519Z,33.7
2018-08-18T05:55:12.865Z,34.1
2018-08-18T05:56:02.355Z,34.4
2018-08-18T05:56:52.714Z,34.8
2018-08-18T05:57:42.777Z,35.1
2018-08-18T05:58:33.116Z,35.6
2018-08-18T05:59:22.913Z,35.9
2018-08-18T06:00:13.259Z,36.3
2018-08-18T06:01:03.048Z,36.7
2018-08-18T06:01:53.107Z,37.1
2018-08-18T06:02:43.433Z,37.4
2018-08-18T06:03:33.508Z,37.8
2018-08-18T06:04:23.591Z,38.2
2018-08-18T06:05:13.346Z,38.6
2018-08-18T06:06:03.749Z,38.9
2018-08-18T06:06:53.483Z,39.3
2018-08-18T06:07:43.530Z,39.7
2018-08-18T06:08:33.608Z,40.1
2018-08-18T06:09:23.954Z,40.4
2018-08-18T06:10:13.999Z,40.8
2018-08-18T06:11:04.101Z,41.1
2018-08-18T06:11:53.882Z,41.5
2018-08-18T06:12:44.215Z,41.9
2018-08-18T06:13:34.265Z,42.3
2018-08-18T06:14:24.304Z,42.6
2018-08-18T06:15:14.400Z,43
2018-08-18T06:16:04.438Z,43.4
2018-08-18T06:16:54.233Z,43.8
2018-08-18T06:17:44.285Z,44.1
2018-08-18T06:18:34.362Z,44.5
2018-08-18T06:19:24.423Z,44.9
2018-08-18T06:20:14.306Z,45.3
2018-08-18T06:21:04.832Z,45.7
2018-08-18T06:21:54.409Z,46.1
2018-08-18T06:22:44.974Z,46.4
2018-08-18T06:23:35.089Z,46.8
2018-08-18T06:24:25.100Z,47.1
2018-08-18T06:25:15.142Z,47.5
2018-08-18T06:26:04.953Z,47.9
2018-08-18T06:26:55.313Z,48.3
2018-08-18T06:27:45.090Z,48.7
2018-08-18T06:28:34.855Z,49.1
2018-08-18T06:29:25.193Z,49.5
2018-08-18T06:30:14.709Z,49.9
2018-08-18T06:31:05.625Z,50.3
2018-08-18T06:31:55.678Z,50.8
2018-08-18T06:32:45.182Z,51.2
2018-08-18T06:33:35.822Z,51.8
2018-08-18T06:34:25.952Z,53.1
2018-08-18T06:35:15.969Z,52.6
2018-08-18T06:36:05.733Z,51.2
2018-08-18T06:36:56.066Z,48.1
2018-08-18T06:37:46.129Z,45.1
2018-08-18T06:38:35.636Z,43.5
2018-08-18T06:39:26.259Z,42.6
2018-08-18T06:40:16.340Z,42
2018-08-18T06:41:06.497Z,41.8
2018-08-18T06:41:57.166Z,41.9
2018-08-18T06:42:46.600Z,42.3
2018-08-18T06:43:36.303Z,42.9
2018-08-18T06:44:26.377Z,43.4
2018-08-18T06:45:16.414Z,44.1
2018-08-18T06:46:06.488Z,44.7
2018-08-18T06:46:56.832Z,45.4
2018-08-18T06:47:46.604Z,46.1
2018-08-18T06:48:36.404Z,46.8
2018-08-18T06:49:26.725Z,47.6
2018-08-18T06:50:17.088Z,48.3
2018-08-18T06:51:06.856Z,48.9
2018-08-18T06:51:57.196Z,49.6
2018-08-18T06:52:46.991Z,50.2
2018-08-18T06:53:37.083Z,50.8
2018-08-18T06:54:27.953Z,51.5
2018-08-18T06:55:18.868Z,53.2
2018-08-18T06:56:07.527Z,53.4
2018-08-18T06:56:57.792Z,52.6
2018-08-18T06:57:47.400Z,51.3
2018-08-18T06:58:37.449Z,49.8
2018-08-18T06:59:27.783Z,48.4
2018-08-18T07:00:17.857Z,47.7
2018-08-18T07:01:07.651Z,47.3
2018-08-18T07:01:58.012Z,47.3
2018-08-18T07:02:47.778Z,47.7
2018-08-18T07:03:37.998Z,48.3
2018-08-18T07:04:28.185Z,48.9
2018-08-18T07:05:18.276Z,49.7
2018-08-18T07:06:08.323Z,50.4
2018-08-18T07:06:58.402Z,51.3
2018-08-18T07:07:48.455Z,53.1
2018-08-18T07:08:38.503Z,53.9
2018-08-18T07:09:28.591Z,54.1
2018-08-18T07:10:18.667Z,53.8
2018-08-18T07:11:08.438Z,52.8
2018-08-18T07:11:58.507Z,51.6
2018-08-18T07:12:48.555Z,50.9
2018-08-18T07:13:38.638Z,51.1
2018-08-18T07:14:28.678Z,51.8
2018-08-18T07:15:18.190Z,52.3
2018-08-18T07:16:08.822Z,52.7
2018-08-18T07:16:59.168Z,52.8
2018-08-18T07:17:49.218Z,52.6
2018-08-18T07:18:39.332Z,52.4
2018-08-18T07:19:29.615Z,52.4
2018-08-18T07:20:19.237Z,52.6
2018-08-18T07:21:08.902Z,52.9
2018-08-18T07:21:59.554Z,53.1
2018-08-18T07:22:49.638Z,53.3
2018-08-18T07:23:39.381Z,53.4
2018-08-18T07:24:29.721Z,53.5
2018-08-18T07:25:19.789Z,53.6
2018-08-18T07:26:09.883Z,53.7
2018-08-18T07:26:59.899Z,53.9
2018-08-18T07:27:49.982Z,54
2018-08-18T07:28:40.523Z,54.1
2018-08-18T07:29:30.109Z,54.3
2018-08-18T07:30:20.172Z,54.4
2018-08-18T07:31:10.261Z,54.4
2018-08-18T07:32:00.027Z,54.6
2018-08-18T07:32:50.399Z,54.7
2018-08-18T07:33:40.492Z,54.8
2018-08-18T07:34:30.493Z,54.9
2018-08-18T07:35:20.272Z,55.1
2018-08-18T07:36:10.362Z,55.2
2018-08-18T07:37:00.558Z,55.3
2018-08-18T07:37:50.782Z,55.4
2018-08-18T07:38:40.857Z,55.6
2018-08-18T07:39:30.628Z,55.7
2018-08-18T07:40:20.680Z,55.8
2018-08-18T07:41:10.759Z,56
2018-08-18T07:42:00.819Z,56.1
2018-08-18T07:42:51.206Z,56.3
2018-08-18T07:43:40.958Z,56.4
2018-08-18T07:44:31.295Z,56.6
2018-08-18T07:45:21.363Z,56.7
2018-08-18T07:46:11.520Z,56.9
2018-08-18T07:47:01.213Z,57
2018-08-18T07:47:51.545Z,57.1
2018-08-18T07:48:41.618Z,57.3
2018-08-18T07:49:31.409Z,57.4
2018-08-18T07:50:21.757Z,57.4
2018-08-18T07:51:11.529Z,57.6
2018-08-18T07:52:01.583Z,57.7
2018-08-18T07:52:51.929Z,57.8
2018-08-18T07:53:42.121Z,57.9
2018-08-18T07:54:32.071Z,58.1
2018-08-18T07:55:21.859Z,58.2
2018-08-18T07:56:12.170Z,58.3
2018-08-18T07:57:01.954Z,58.4
2018-08-18T07:58:42.399Z,58.7
2018-08-18T07:59:32.453Z,58.8
2018-08-18T08:00:22.506Z,58.9
2018-08-18T08:01:12.591Z,59
2018-08-18T08:02:02.644Z,59.1
2018-08-18T08:02:52.431Z,59.1
2018-08-18T08:03:42.761Z,59.3
2018-08-18T08:04:32.812Z,59.3
2018-08-18T08:05:22.674Z,59.4
2018-08-18T08:06:12.968Z,59.4
2018-08-18T08:07:03.030Z,59.6
2018-08-18T08:07:52.811Z,59.6
2018-08-18T08:08:43.156Z,59.7
2018-08-18T08:09:32.954Z,59.8
2018-08-18T08:10:23.266Z,59.9
2018-08-18T08:11:13.077Z,59.9
2018-08-18T08:12:03.456Z,59.9
2018-08-18T08:12:53.865Z,60
2018-08-18T08:13:43.550Z,60
2018-08-18T08:14:33.635Z,60.1
2018-08-18T08:15:23.703Z,60.1
2018-08-18T08:16:13.740Z,60.2
2018-08-18T08:17:03.530Z,60.1
2018-08-18T08:17:53.601Z,60.1
2018-08-18T08:18:43.661Z,59.9
2018-08-18T08:19:33.715Z,59.9
2018-08-18T08:20:24.088Z,59.9
2018-08-18T08:21:13.865Z,59.9
2018-08-18T08:22:04.217Z,60
2018-08-18T08:22:54.274Z,60.1
2018-08-18T08:23:44.052Z,60.2
2018-08-18T08:24:34.124Z,60.3
2018-08-18T08:25:24.457Z,60.4
2018-08-18T08:26:14.538Z,60.5
2018-08-18T08:27:04.580Z,60.6
2018-08-18T08:27:54.661Z,60.8
2018-08-18T08:28:44.723Z,60.8
2018-08-18T08:29:35.008Z,60.9
2018-08-18T08:30:24.896Z,61
2018-08-18T08:31:14.907Z,61
2018-08-18T08:32:04.947Z,61.1
2018-08-18T08:32:55.053Z,61.1
2018-08-18T08:33:45.227Z,61.1
2018-08-18T08:34:35.181Z,61.1
2018-08-18T08:35:24.946Z,61.2
2018-08-18T08:36:14.996Z,61.3
2018-08-18T08:37:05.352Z,61.4
2018-08-18T08:37:55.147Z,61.5
2018-08-18T08:38:45.503Z,61.6
2018-08-18T08:39:35.557Z,61.8
2018-08-18T08:40:25.364Z,61.9
2018-08-18T08:41:17.187Z,62.1
2018-08-18T08:42:05.740Z,62.3
2018-08-18T08:42:56.276Z,62.4
2018-08-18T08:43:45.387Z,62.6
2018-08-18T08:44:35.655Z,62.8
2018-08-18T08:45:26.401Z,62.9
2018-08-18T08:46:15.870Z,63
2018-08-18T08:47:05.557Z,63.1
2018-08-18T08:47:56.224Z,63.3
2018-08-18T08:48:45.976Z,63.4
2018-08-18T08:49:36.303Z,63.5
2018-08-18T08:50:26.489Z,63.6
2018-08-18T08:51:16.488Z,63.6
2018-08-18T08:52:06.546Z,63.6
2018-08-18T08:52:56.612Z,63.6
2018-08-18T08:53:46.764Z,63.4
2018-08-18T08:54:36.949Z,63.4
2018-08-18T08:55:25.957Z,63.3
2018-08-18T08:56:16.769Z,63.3
2018-08-18T08:57:07.144Z,63.4
2018-08-18T08:57:56.995Z,63.4
2018-08-18T08:58:47.273Z,63.5
2018-08-18T08:59:37.840Z,63.6
2018-08-18T09:00:27.187Z,63.7
2018-08-18T09:01:17.263Z,63.8
2018-08-18T09:02:07.385Z,63.9
2018-08-18T09:02:57.338Z,63.9
2018-08-18T09:03:47.635Z,63.9
2018-08-18T09:04:37.708Z,63.8
2018-08-18T09:21:11.028Z,64.3
2018-08-18T09:22:01.062Z,64.3
2018-08-18T09:22:51.124Z,64.2
2018-08-18T09:23:41.468Z,64.2
2018-08-18T09:24:30.968Z,64.1
2018-08-18T09:25:21.640Z,64.1
2018-08-18T09:26:11.949Z,64.1
2018-08-18T09:27:01.156Z,64
2018-08-18T09:27:51.776Z,64
2018-08-18T09:28:41.861Z,64
2018-08-18T09:29:31.909Z,64
2018-08-18T09:30:21.990Z,64.1
2018-08-18T09:31:12.071Z,64.1
2018-08-18T09:32:02.114Z,64.2
2018-08-18T09:32:52.188Z,64.3
2018-08-18T09:33:42.259Z,64.4
2018-08-18T09:34:32.331Z,64.5
2018-08-18T09:35:22.107Z,64.6
2018-08-18T09:36:12.697Z,64.5
2018-08-18T09:37:02.526Z,64.4
2018-08-18T09:37:52.585Z,64.4
2018-08-18T09:38:42.379Z,64.4
2018-08-18T09:39:32.434Z,64.6
2018-08-18T09:40:22.775Z,64.6
2018-08-18T09:41:12.849Z,64.8
2018-08-18T09:42:02.646Z,64.8
2018-08-18T09:42:52.971Z,64.9
2018-08-18T09:43:43.046Z,64.9
2018-08-18T09:44:33.120Z,65
2018-08-18T09:45:23.388Z,65.1
2018-08-18T09:46:12.520Z,65.2
2018-08-18T09:47:03.308Z,65.3
2018-08-18T09:47:53.071Z,65.4
2018-08-18T09:48:43.438Z,65.6
2018-08-18T09:49:32.910Z,65.7
2018-08-18T09:50:23.533Z,65.8
2018-08-18T09:51:13.595Z,65.9
2018-08-18T09:52:03.664Z,66
2018-08-18T09:52:53.750Z,66
2018-08-18T09:53:43.057Z,66.1
2018-08-18T09:54:33.865Z,66.1
2018-08-18T09:55:23.373Z,66.1
2018-08-18T09:56:13.720Z,66.1
2018-08-18T09:57:04.154Z,66.1
2018-08-18T09:57:54.135Z,66.3
2018-08-18T09:58:44.279Z,66.3
2018-08-18T09:59:34.284Z,66.4
2018-08-18T10:00:24.336Z,66.5
2018-08-18T10:01:14.159Z,66.6
2018-08-18T10:02:04.466Z,66.6
2018-08-18T10:02:54.537Z,66.6
2018-08-18T10:03:44.316Z,66.6
2018-08-18T10:04:34.662Z,66.6
2018-08-18T10:05:24.718Z,66.7
2018-08-18T10:06:14.947Z,66.8
2018-08-18T10:07:04.878Z,66.8
2018-08-18T10:07:54.958Z,66.8
2018-08-18T10:08:45.008Z,66.9
2018-08-18T10:09:35.051Z,66.8
2018-08-18T10:10:25.146Z,66.8
2018-08-18T10:11:15.194Z,66.7
2018-08-18T10:12:05.294Z,66.7
2018-08-18T10:12:55.335Z,66.7
2018-08-18T10:13:45.384Z,66.8
2018-08-18T10:14:35.437Z,66.9
2018-08-18T10:15:25.137Z,67
2018-08-18T10:16:15.611Z,67.1
2018-08-18T10:17:05.659Z,67.1
2018-08-18T10:17:55.444Z,67.1
2018-08-18T10:18:45.498Z,67.1
2018-08-18T10:19:35.276Z,67.1
2018-08-18T10:20:25.624Z,67
2018-08-18T10:21:15.980Z,67
2018-08-18T10:22:05.490Z,67.1
2018-08-18T10:22:56.103Z,67.1
2018-08-18T10:23:46.202Z,67.2
2018-08-18T10:24:35.922Z,67.3
2018-08-18T10:25:26.286Z,67.4
2018-08-18T10:26:16.066Z,67.6
2018-08-18T10:27:06.513Z,67.6
2018-08-18T10:27:56.519Z,67.6
2018-08-18T10:28:46.263Z,67.6
2018-08-18T10:29:36.604Z,67.6
2018-08-18T10:30:26.397Z,67.6
2018-08-18T10:31:16.448Z,67.6
2018-08-18T10:32:06.522Z,67.5
2018-08-18T10:32:56.602Z,67.5
2018-08-18T10:33:46.659Z,67.5
2018-08-18T10:34:36.989Z,67.5
2018-08-18T10:35:27.056Z,67.6
2018-08-18T10:36:17.139Z,67.7
2018-08-18T10:37:06.927Z,67.8
2018-08-18T10:37:57.275Z,67.8
2018-08-18T10:38:47.057Z,67.7
2018-08-18T10:39:37.124Z,67.6
2018-08-18T10:40:27.467Z,66.9
2018-08-18T10:41:17.514Z,65.9
2018-08-18T10:42:08.093Z,65.2
2018-08-18T10:42:57.674Z,65.3
2018-08-18T10:43:47.814Z,65.7
2018-08-18T10:44:37.814Z,66.3
2018-08-18T10:45:27.876Z,66.6
2018-08-18T10:46:17.939Z,66.6
2018-08-18T10:47:07.990Z,66.6
2018-08-18T10:47:58.058Z,66.4
2018-08-18T10:48:48.132Z,65.8
2018-08-18T10:49:38.193Z,65.8
2018-08-18T10:50:28.269Z,66.1
2018-08-18T10:51:18.051Z,66.4
2018-08-18T10:52:08.389Z,66.7
2018-08-18T10:52:58.170Z,66.8
2018-08-18T10:53:48.534Z,66.8
2018-08-18T10:54:38.601Z,66.3
2018-08-18T10:55:28.660Z,66.1
2018-08-18T10:56:18.728Z,66.2
2018-08-18T10:57:08.796Z,66.5
2018-08-18T10:57:58.570Z,66.9
2018-08-18T10:58:48.640Z,67.3
2018-08-18T10:59:38.729Z,67.5
2018-08-18T11:00:28.740Z,67.6
2018-08-18T11:01:19.081Z,67.4
2018-08-18T11:02:09.170Z,67.4
2018-08-18T11:02:59.210Z,67.6
2018-08-18T11:03:49.468Z,67.2
2018-08-18T11:04:39.342Z,66.4
2018-08-18T11:05:29.151Z,65.9
2018-08-18T11:06:19.487Z,66.1
2018-08-18T11:07:08.978Z,66.4
2018-08-18T11:07:59.341Z,66.8
2018-08-18T11:08:49.669Z,67.1
2018-08-18T11:09:39.469Z,67.1
2018-08-18T11:10:29.820Z,66.9
2018-08-18T11:11:19.651Z,66.8
2018-08-18T11:12:09.393Z,66.8
2018-08-18T11:13:00.020Z,66.9
2018-08-18T11:13:50.059Z,67.1
2018-08-18T11:14:40.133Z,67.2
2018-08-18T11:15:29.938Z,67.3
2018-08-18T11:16:20.003Z,67.3
2018-08-18T11:17:10.078Z,67.3
2018-08-18T11:18:00.432Z,67.4
2018-08-18T11:18:50.482Z,67.4
2018-08-18T11:19:40.565Z,67.4
2018-08-18T11:20:30.609Z,67.4
2018-08-18T11:21:20.685Z,67.1
2018-08-18T11:22:10.468Z,66.2
2018-08-18T11:23:00.832Z,65
2018-08-18T11:23:50.885Z,63.9
2018-08-18T11:24:40.939Z,63.3
2018-08-18T11:25:30.733Z,62.9
2018-08-18T11:26:21.077Z,63.1
2018-08-18T11:27:10.864Z,63.6
2018-08-18T11:28:00.935Z,63.9
2018-08-18T11:28:51.034Z,64.2
2018-08-18T11:29:41.322Z,64.3
2018-08-18T11:30:31.400Z,63.8
2018-08-18T11:31:21.472Z,63.2
2018-08-18T11:32:11.556Z,62.4
2018-08-18T11:33:01.632Z,62
2018-08-18T11:33:51.653Z,62.3
2018-08-18T11:34:41.761Z,62.8
2018-08-18T11:35:31.772Z,63.3
2018-08-18T11:36:21.568Z,63.6
2018-08-18T11:37:11.921Z,63.8
2018-08-18T11:38:01.983Z,63.7
2018-08-18T11:38:51.778Z,63.6
2018-08-18T11:39:42.096Z,63.7
2018-08-18T11:40:31.879Z,63.9
2018-08-18T11:41:22.248Z,64.2
2018-08-18T11:42:12.008Z,64.5
2018-08-18T11:43:02.363Z,64.7
2018-08-18T11:43:52.453Z,64.9
2018-08-18T11:44:42.484Z,65.1
2018-08-18T11:45:32.616Z,65.2
2018-08-18T11:46:22.358Z,65.3
2018-08-18T11:47:12.522Z,65.5
2018-08-18T11:48:02.750Z,65.7
2018-08-18T11:48:52.880Z,65.8
2018-08-18T11:49:42.628Z,65.9
2018-08-18T11:50:32.951Z,66.1
2018-08-18T11:51:22.732Z,66.2
2018-08-18T11:52:12.816Z,66.3
2018-08-18T11:53:03.164Z,66.4
2018-08-18T11:53:53.228Z,66.5
2018-08-18T11:54:43.042Z,66.5
2018-08-18T11:55:33.350Z,66.5
2018-08-18T11:56:23.430Z,66.5
2018-08-18T11:57:13.207Z,66.4
2018-08-18T11:58:03.550Z,66.5
2018-08-18T11:58:53.673Z,66.5
2018-08-18T11:59:43.700Z,66.5